Fernwood, Pennsylvania
Current Conditions -  °F | °C
As of 7:54 AM on Saturday 22 Nov 2014 (Local Time) from KPHL Reporting Station
Few Clouds Few Clouds  
Wind Chill: 23°   Ceiling: Unl
Heat Index: 28°   Visibility: 10mi
Dew Point: 16°   Wind: 5mph
Humidity: 61%   Direction: 210°SSW
Pressure: 30.53"   Gusts: NA
Location:  39.9372°N, 75.2636°W
Report Text: KPHL 221254Z 21004KT 10SM FEW100 M02/M09 A3053 RMK AO2 SLP339 T10221089 $
Loading
Personal Weather Stations






























Interactive Weather Map New forecast layout! Learn more

10-Day Weather Forecast

Advertisements
Track Severe Weather on mobile